Time;durP1;ratioP1;P1;durP2;ratioP2;P2;SDS_P1;SDS_P2;PMS_P1;PMS_P2;Temp;Humidity;BMP_temperature;BMP_pressure;BME280_temperature;BME280_humidity;BME280_pressure;Samples;Min_cycle;Max_cycle;Signal;HPM_P1;HPM_P2
2022/09/14 00:01:43;;;;;;;;;;;13.30;99.90;;;;;;5092882;28;19992;-70
2022/09/14 00:04:13;;;;;;;;;;;13.30;99.90;;;;;;5092729;28;19955;-67
2022/09/14 00:06:39;;;;;;;;;;;13.40;99.90;;;;;;5091629;28;19927;-66
2022/09/14 00:09:05;;;;;;;;;;;13.40;99.90;;;;;;5091486;28;19941;-67
2022/09/14 00:11:32;;;;;;;;;;;13.40;99.90;;;;;;5073278;28;19966;-69
2022/09/14 00:13:58;;;;;;;;;;;13.40;99.90;;;;;;5071797;28;20013;-69
2022/09/14 00:16:25;;;;;;;;;;;13.30;99.90;;;;;;5071884;28;19923;-67
2022/09/14 00:18:51;;;;;;;;;;;13.30;99.90;;;;;;5073783;28;20303;-66
2022/09/14 00:21:17;;;;;;;;;;;13.30;99.90;;;;;;5073634;28;20329;-67
2022/09/14 00:23:43;;;;;;;;;;;13.30;99.90;;;;;;5072120;28;19920;-68
2022/09/14 00:26:11;;;;;;;;;;;13.30;99.90;;;;;;5073116;28;19928;-67
2022/09/14 00:28:40;;;;;;;;;;;13.20;99.90;;;;;;5071795;28;19920;-70
2022/09/14 00:31:06;;;;;;;;;;;13.20;99.90;;;;;;5073255;28;20963;-67
2022/09/14 00:33:33;;;;;;;;;;;13.10;99.90;;;;;;5072059;28;20204;-69
2022/09/14 00:36:11;;;;;;;;;;;13.10;99.90;;;;;;5072957;28;19974;-67
2022/09/14 00:38:37;;;;;;;;;;;13.10;99.90;;;;;;5091392;28;20400;-72
2022/09/14 00:41:04;;;;;;;;;;;13.00;99.90;;;;;;5081245;28;20574;-67
2022/09/14 00:43:30;;;;;;;;;;;13.10;99.90;;;;;;5072941;28;20345;-66
2022/09/14 00:45:58;;;;;;;;;;;13.10;99.90;;;;;;5073777;28;20220;-69
2022/09/14 00:48:24;;;;;;;;;;;13.10;99.90;;;;;;5073354;28;20066;-66
2022/09/14 00:50:50;;;;;;;;;;;13.20;99.90;;;;;;5073055;28;20124;-67
2022/09/14 00:53:16;;;;;;;;;;;13.30;99.90;;;;;;5055009;28;19927;-67
2022/09/14 00:55:41;;;;;;;;;;;13.30;99.90;;;;;;5076970;28;20307;-70
2022/09/14 00:58:07;;;;;;;;;;;13.40;99.90;;;;;;5094433;27;20578;-67
2022/09/14 01:00:33;;;;;;;;;;;13.40;99.90;;;;;;5088128;28;20030;-67
2022/09/14 01:02:59;;;;;;;;;;;13.50;99.90;;;;;;5092520;28;19923;-68
2022/09/14 01:05:35;;;;;;;;;;;13.60;99.90;;;;;;5093762;28;20240;-68
2022/09/14 01:08:18;;;;;;;;;;;13.60;99.90;;;;;;5094631;28;20283;-67
2022/09/14 01:10:49;;;;;;;;;;;13.60;99.90;;;;;;5074545;28;19928;-68
2022/09/14 01:13:27;;;;;;;;;;;13.70;99.90;;;;;;5073145;28;20229;-72
2022/09/14 01:16:08;;;;;;;;;;;13.70;99.90;;;;;;5074487;28;19976;-67
2022/09/14 01:18:44;;;;;;;;;;;13.80;99.90;;;;;;5073520;28;19924;-70
2022/09/14 01:21:22;;;;;;;;;;;13.80;99.90;;;;;;5074630;28;19924;-68
2022/09/14 01:23:58;;;;;;;;;;;13.80;99.90;;;;;;5074111;28;20015;-68
2022/09/14 01:26:33;;;;;;;;;;;13.90;99.90;;;;;;5073459;28;19923;-67
2022/09/14 01:29:09;;;;;;;;;;;13.90;99.90;;;;;;5074331;28;19982;-68
2022/09/14 01:31:55;;;;;;;;;;;13.90;99.90;;;;;;5074231;28;19920;-68
2022/09/14 01:34:25;;;;;;;;;;;13.90;99.90;;;;;;5074679;28;19969;-66
2022/09/14 01:36:54;;;;;;;;;;;13.80;99.90;;;;;;5074228;28;19930;-70
2022/09/14 01:39:20;;;;;;;;;;;13.80;99.90;;;;;;5073809;28;19923;-67
2022/09/14 01:41:46;;;;;;;;;;;13.80;99.90;;;;;;5091866;28;20002;-66
2022/09/14 01:44:14;;;;;;;;;;;13.70;99.90;;;;;;5093289;28;19995;-67
2022/09/14 01:46:42;;;;;;;;;;;13.70;99.90;;;;;;5093778;28;20257;-67
2022/09/14 01:49:20;;;;;;;;;;;13.70;99.90;;;;;;5066120;28;20395;-70
2022/09/14 01:51:47;;;;;;;;;;;13.70;99.90;;;;;;5072217;28;20011;-66
2022/09/14 01:54:25;;;;;;;;;;;13.70;99.90;;;;;;5069259;28;20401;-66
2022/09/14 01:56:52;;;;;;;;;;;13.70;99.90;;;;;;5070710;28;19924;-67
2022/09/14 01:59:20;;;;;;;;;;;13.80;99.90;;;;;;5071549;28;19927;-67
2022/09/14 02:01:49;;;;;;;;;;;13.80;99.90;;;;;;5071937;28;19953;-65
2022/09/14 02:04:17;;;;;;;;;;;13.80;99.90;;;;;;5073564;28;19967;-64
2022/09/14 02:06:44;;;;;;;;;;;13.90;99.90;;;;;;5071900;28;19973;-68
2022/09/14 02:09:10;;;;;;;;;;;13.90;99.90;;;;;;5073324;28;19989;-68
2022/09/14 02:11:36;;;;;;;;;;;13.90;99.90;;;;;;5072483;28;19924;-66
2022/09/14 02:14:03;;;;;;;;;;;13.80;99.90;;;;;;5073589;28;20288;-67
2022/09/14 02:16:28;;;;;;;;;;;13.90;99.90;;;;;;5073683;28;19924;-67
2022/09/14 02:18:54;;;;;;;;;;;13.90;99.90;;;;;;5073318;28;19931;-68
2022/09/14 02:21:25;;;;;;;;;;;14.00;99.90;;;;;;5073411;28;19920;-68
2022/09/14 02:23:51;;;;;;;;;;;14.00;99.90;;;;;;5073724;28;20158;-68
2022/09/14 02:26:18;;;;;;;;;;;13.90;99.90;;;;;;5071372;28;20438;-66
2022/09/14 02:28:44;;;;;;;;;;;13.90;99.90;;;;;;5071042;28;20403;-67
2022/09/14 02:31:15;;;;;;;;;;;13.90;99.90;;;;;;5052140;28;19920;-67
2022/09/14 02:33:41;;;;;;;;;;;13.90;99.90;;;;;;5088463;28;20486;-70
2022/09/14 02:36:12;;;;;;;;;;;14.00;99.90;;;;;;5088832;28;19924;-68
2022/09/14 02:38:45;;;;;;;;;;;14.00;99.90;;;;;;5088299;28;20609;-68
2022/09/14 02:41:33;;;;;;;;;;;14.00;99.90;;;;;;5089390;28;19962;-66
2022/09/14 02:43:58;;;;;;;;;;;14.00;99.90;;;;;;5089786;28;19928;-68
2022/09/14 02:46:27;;;;;;;;;;;13.90;99.90;;;;;;5089813;28;19931;-68
2022/09/14 02:48:55;;;;;;;;;;;14.00;99.90;;;;;;5088804;28;19924;-67
2022/09/14 02:51:41;;;;;;;;;;;13.90;99.90;;;;;;5089620;28;19928;-68
2022/09/14 02:54:17;;;;;;;;;;;14.00;99.90;;;;;;5090729;28;19924;-67
2022/09/14 02:56:43;;;;;;;;;;;14.00;99.90;;;;;;5091038;28;19919;-68
2022/09/14 02:59:09;;;;;;;;;;;13.90;99.90;;;;;;5091922;28;19931;-65
2022/09/14 03:01:35;;;;;;;;;;;13.90;99.90;;;;;;5090452;28;20392;-67
2022/09/14 03:04:01;;;;;;;;;;;14.00;99.90;;;;;;5088230;28;20346;-69
2022/09/14 03:06:27;;;;;;;;;;;14.00;99.90;;;;;;5091937;28;20193;-67
2022/09/14 03:08:52;;;;;;;;;;;14.00;99.90;;;;;;5093233;28;20215;-66
2022/09/14 03:11:18;;;;;;;;;;;14.00;99.90;;;;;;5093936;28;19934;-69
2022/09/14 03:13:44;;;;;;;;;;;14.00;99.90;;;;;;5093667;28;20631;-67
2022/09/14 03:16:12;;;;;;;;;;;14.00;99.90;;;;;;5093002;28;19924;-67
2022/09/14 03:18:38;;;;;;;;;;;13.90;99.90;;;;;;5093494;28;20562;-67
2022/09/14 03:21:05;;;;;;;;;;;14.00;99.90;;;;;;5077256;28;20310;-66
2022/09/14 03:23:34;;;;;;;;;;;14.00;99.90;;;;;;5074073;28;19924;-67
2022/09/14 03:25:59;;;;;;;;;;;13.90;99.90;;;;;;5072260;28;19923;-67
2022/09/14 03:28:25;;;;;;;;;;;13.90;99.90;;;;;;5082519;28;20646;-67
2022/09/14 03:30:51;;;;;;;;;;;14.00;99.90;;;;;;5091078;28;19930;-67
2022/09/14 03:33:17;;;;;;;;;;;13.90;99.90;;;;;;5093540;28;20397;-68
2022/09/14 03:35:42;;;;;;;;;;;13.90;99.90;;;;;;5093105;28;19920;-67
2022/09/14 03:38:08;;;;;;;;;;;14.00;99.90;;;;;;5093302;28;19927;-67
2022/09/14 03:40:33;;;;;;;;;;;14.00;99.90;;;;;;5091188;28;20423;-68
2022/09/14 03:42:59;;;;;;;;;;;14.00;99.90;;;;;;5092625;28;20429;-70
2022/09/14 03:45:25;;;;;;;;;;;14.00;99.90;;;;;;5093076;28;19923;-67
2022/09/14 03:47:50;;;;;;;;;;;14.00;99.90;;;;;;5091269;28;19972;-67
2022/09/14 03:50:17;;;;;;;;;;;14.10;99.90;;;;;;5093273;28;20356;-67
2022/09/14 03:52:42;;;;;;;;;;;14.10;99.90;;;;;;5093356;28;19942;-67
2022/09/14 03:55:08;;;;;;;;;;;14.10;99.90;;;;;;5094583;28;19924;-66
2022/09/14 03:57:34;;;;;;;;;;;14.00;99.90;;;;;;5094251;27;19923;-69
2022/09/14 04:00:00;;;;;;;;;;;14.00;99.90;;;;;;5095183;28;19930;-67
2022/09/14 04:02:27;;;;;;;;;;;14.00;99.90;;;;;;5094707;28;19966;-67
2022/09/14 04:04:52;;;;;;;;;;;14.00;99.90;;;;;;5093931;28;20321;-67
2022/09/14 04:07:18;;;;;;;;;;;13.90;99.90;;;;;;5093819;28;19941;-67
2022/09/14 04:09:43;;;;;;;;;;;13.90;99.90;;;;;;5091797;28;20393;-64
2022/09/14 04:12:09;;;;;;;;;;;13.80;99.90;;;;;;5091777;28;20241;-67
2022/09/14 04:14:35;;;;;;;;;;;13.80;99.90;;;;;;5092530;28;20888;-68
2022/09/14 04:17:01;;;;;;;;;;;13.80;99.90;;;;;;5089864;28;20003;-68
2022/09/14 04:19:27;;;;;;;;;;;13.80;99.90;;;;;;5091254;28;20514;-68
2022/09/14 04:21:52;;;;;;;;;;;13.80;99.90;;;;;;5092776;28;19927;-66
2022/09/14 04:24:18;;;;;;;;;;;13.80;99.90;;;;;;5093749;28;20203;-66
2022/09/14 04:26:44;;;;;;;;;;;13.80;99.90;;;;;;5093903;28;19919;-66
2022/09/14 04:29:10;;;;;;;;;;;13.80;99.90;;;;;;5092537;28;20152;-68
2022/09/14 04:31:35;;;;;;;;;;;13.80;99.90;;;;;;5092136;28;20357;-66
2022/09/14 04:34:01;;;;;;;;;;;13.80;99.90;;;;;;5092121;28;19924;-68
2022/09/14 04:36:29;;;;;;;;;;;13.80;99.90;;;;;;5092934;28;19930;-67
2022/09/14 04:38:59;;;;;;;;;;;13.70;99.90;;;;;;5092520;28;20696;-67
2022/09/14 04:41:25;;;;;;;;;;;13.80;99.90;;;;;;5092536;28;19950;-69
2022/09/14 04:43:51;;;;;;;;;;;13.80;99.90;;;;;;5092078;28;19930;-67
2022/09/14 04:46:18;;;;;;;;;;;13.90;99.90;;;;;;5094685;28;20958;-66
2022/09/14 04:48:44;;;;;;;;;;;13.90;99.90;;;;;;5093968;28;20019;-69
2022/09/14 04:51:15;;;;;;;;;;;14.00;99.90;;;;;;5095195;28;20030;-67
2022/09/14 04:53:41;;;;;;;;;;;14.00;99.90;;;;;;5094625;28;20017;-67
2022/09/14 04:56:08;;;;;;;;;;;14.00;99.90;;;;;;5093962;28;20343;-65
2022/09/14 04:58:38;;;;;;;;;;;14.00;99.90;;;;;;5091463;28;19977;-69
2022/09/14 05:01:08;;;;;;;;;;;14.00;99.90;;;;;;5091071;28;19962;-68
2022/09/14 05:03:34;;;;;;;;;;;14.00;99.90;;;;;;5090881;28;20501;-67
2022/09/14 05:06:00;;;;;;;;;;;14.00;99.90;;;;;;5091733;28;19930;-67
2022/09/14 05:08:26;;;;;;;;;;;14.10;99.90;;;;;;5092281;28;19919;-70
2022/09/14 05:10:55;;;;;;;;;;;14.10;99.90;;;;;;5092947;28;19923;-71
2022/09/14 05:13:21;;;;;;;;;;;14.10;99.90;;;;;;5092926;28;19924;-67
2022/09/14 05:15:46;;;;;;;;;;;14.10;99.90;;;;;;5093651;28;19930;-67
2022/09/14 05:18:12;;;;;;;;;;;14.00;99.90;;;;;;5094721;28;20006;-66
2022/09/14 05:20:37;;;;;;;;;;;13.90;99.90;;;;;;5094060;28;20371;-66
2022/09/14 05:23:03;;;;;;;;;;;13.90;99.90;;;;;;5092460;28;20299;-66
2022/09/14 05:25:28;;;;;;;;;;;13.80;99.90;;;;;;5093848;28;19919;-66
2022/09/14 05:27:54;;;;;;;;;;;13.80;99.90;;;;;;5089601;28;20547;-67
2022/09/14 05:30:19;;;;;;;;;;;13.70;99.90;;;;;;5092716;28;20241;-67
2022/09/14 05:32:45;;;;;;;;;;;13.80;99.90;;;;;;5095117;28;20324;-67
2022/09/14 05:35:10;;;;;;;;;;;13.70;99.90;;;;;;5094428;28;19924;-68
2022/09/14 05:37:36;;;;;;;;;;;13.70;99.90;;;;;;5093516;28;19931;-70
2022/09/14 05:40:02;;;;;;;;;;;13.70;99.90;;;;;;5095750;28;20004;-67
2022/09/14 05:42:27;;;;;;;;;;;13.70;99.90;;;;;;5096049;28;19928;-67
2022/09/14 05:44:53;;;;;;;;;;;13.70;99.90;;;;;;5094956;28;19941;-67
2022/09/14 05:47:18;;;;;;;;;;;13.70;99.90;;;;;;5096242;28;20337;-67
2022/09/14 05:49:44;;;;;;;;;;;13.70;99.90;;;;;;5096322;28;19927;-67
2022/09/14 05:52:09;;;;;;;;;;;13.80;99.90;;;;;;5094354;28;20009;-68
2022/09/14 05:54:35;;;;;;;;;;;13.70;99.90;;;;;;5092617;28;20440;-68
2022/09/14 05:57:00;;;;;;;;;;;13.80;99.90;;;;;;5093628;27;20000;-67
2022/09/14 05:59:30;;;;;;;;;;;13.80;99.90;;;;;;5092925;28;19924;-68
2022/09/14 06:01:56;;;;;;;;;;;13.80;99.90;;;;;;5093076;28;19972;-67
2022/09/14 06:04:22;;;;;;;;;;;13.90;99.90;;;;;;5093425;28;19923;-67
2022/09/14 06:06:47;;;;;;;;;;;14.10;99.90;;;;;;5092504;28;19935;-67
2022/09/14 06:09:14;;;;;;;;;;;14.10;99.90;;;;;;5092390;28;19968;-67
2022/09/14 06:11:39;;;;;;;;;;;14.20;99.90;;;;;;5091186;28;20351;-67
2022/09/14 06:14:06;;;;;;;;;;;14.20;99.90;;;;;;5092554;28;19923;-69
2022/09/14 06:16:31;;;;;;;;;;;14.20;99.90;;;;;;5091289;28;20331;-66
2022/09/14 06:18:58;;;;;;;;;;;14.40;99.90;;;;;;5092276;28;20026;-69
2022/09/14 06:21:26;;;;;;;;;;;14.40;99.90;;;;;;5090740;28;19920;-67
2022/09/14 06:23:51;;;;;;;;;;;14.40;99.90;;;;;;5091690;28;20375;-70
2022/09/14 06:26:17;;;;;;;;;;;14.50;99.90;;;;;;5091949;28;19959;-67
2022/09/14 06:28:43;;;;;;;;;;;14.60;99.90;;;;;;5092181;28;19924;-68
2022/09/14 06:31:10;;;;;;;;;;;14.70;99.90;;;;;;5090753;28;19949;-67
2022/09/14 06:33:36;;;;;;;;;;;14.80;99.90;;;;;;5092241;27;19930;-68
2022/09/14 06:36:11;;;;;;;;;;;15.00;99.90;;;;;;5091925;28;20448;-67
2022/09/14 06:38:36;;;;;;;;;;;15.20;99.90;;;;;;5090480;28;19923;-68
2022/09/14 06:41:03;;;;;;;;;;;15.40;99.90;;;;;;5091970;28;19930;-66
2022/09/14 06:43:30;;;;;;;;;;;15.40;99.90;;;;;;5090667;28;19920;-67
2022/09/14 06:45:59;;;;;;;;;;;15.40;99.90;;;;;;5092108;28;20382;-68
2022/09/14 06:48:25;;;;;;;;;;;15.50;99.90;;;;;;5092168;28;19923;-69
2022/09/14 06:50:50;;;;;;;;;;;15.50;99.90;;;;;;5091916;28;20506;-67
2022/09/14 06:53:16;;;;;;;;;;;15.50;99.90;;;;;;5087143;28;20341;-66
2022/09/14 06:55:43;;;;;;;;;;;15.50;99.90;;;;;;5072557;28;19982;-67
2022/09/14 06:58:09;;;;;;;;;;;15.60;99.90;;;;;;5072983;28;19931;-67
2022/09/14 07:00:35;;;;;;;;;;;15.60;99.90;;;;;;5072033;28;19924;-66
2022/09/14 07:03:00;;;;;;;;;;;15.70;99.90;;;;;;5069510;28;19963;-69
2022/09/14 07:05:26;;;;;;;;;;;15.80;99.90;;;;;;5071072;28;20313;-67
2022/09/14 07:07:52;;;;;;;;;;;15.80;99.90;;;;;;5087153;28;20527;-67
2022/09/14 07:10:18;;;;;;;;;;;15.80;99.90;;;;;;5088305;28;19949;-67
2022/09/14 07:12:43;;;;;;;;;;;15.70;99.90;;;;;;5087528;28;20337;-65
2022/09/14 07:15:09;;;;;;;;;;;15.80;99.90;;;;;;5087147;28;19959;-68
2022/09/14 07:17:35;;;;;;;;;;;15.80;99.90;;;;;;5088031;28;19931;-70
2022/09/14 07:20:04;;;;;;;;;;;15.80;99.90;;;;;;5088075;28;19924;-67
2022/09/14 07:22:33;;;;;;;;;;;15.90;99.90;;;;;;5086240;28;20448;-67
2022/09/14 07:24:58;;;;;;;;;;;15.90;99.90;;;;;;5068577;28;19923;-66
2022/09/14 07:27:24;;;;;;;;;;;15.90;99.90;;;;;;5068186;28;20338;-68
2022/09/14 07:29:50;;;;;;;;;;;16.00;99.90;;;;;;5086847;28;19982;-68
2022/09/14 07:32:15;;;;;;;;;;;16.10;99.90;;;;;;5087082;28;19970;-67
2022/09/14 07:34:41;;;;;;;;;;;16.00;99.90;;;;;;5088389;28;19920;-66
2022/09/14 07:37:06;;;;;;;;;;;16.00;99.90;;;;;;5090249;28;19919;-68
2022/09/14 07:39:32;;;;;;;;;;;16.10;99.90;;;;;;5090825;28;19924;-68
2022/09/14 07:41:57;;;;;;;;;;;16.20;99.90;;;;;;5090280;28;20339;-70
2022/09/14 07:44:23;;;;;;;;;;;16.40;99.90;;;;;;5089346;28;20311;-68
2022/09/14 07:46:49;;;;;;;;;;;16.40;99.90;;;;;;5090106;28;20006;-68
2022/09/14 07:49:15;;;;;;;;;;;16.50;99.90;;;;;;5069535;28;19920;-69
2022/09/14 07:51:40;;;;;;;;;;;16.50;99.90;;;;;;5071175;28;20257;-70
2022/09/14 07:54:07;;;;;;;;;;;16.70;99.90;;;;;;5074349;28;20461;-67
2022/09/14 07:56:33;;;;;;;;;;;16.80;99.90;;;;;;5074243;28;19924;-68
2022/09/14 07:58:59;;;;;;;;;;;17.10;99.90;;;;;;5074679;28;20239;-67
2022/09/14 08:01:28;;;;;;;;;;;17.30;99.90;;;;;;5073131;28;19934;-67
2022/09/14 08:03:53;;;;;;;;;;;17.50;99.90;;;;;;5043044;28;1141377;-68
2022/09/14 08:06:21;;;;;;;;;;;17.80;99.90;;;;;;5075682;28;20379;-68
2022/09/14 08:08:48;;;;;;;;;;;18.00;99.90;;;;;;5075793;28;19935;-68
2022/09/14 08:11:15;;;;;;;;;;;18.20;99.90;;;;;;5075615;28;20324;-68
2022/09/14 08:13:42;;;;;;;;;;;18.10;99.90;;;;;;5076017;28;20142;-67
2022/09/14 08:16:08;;;;;;;;;;;18.20;99.90;;;;;;5085233;28;20008;-67
2022/09/14 08:18:34;;;;;;;;;;;18.30;99.90;;;;;;5094887;28;20092;-70
2022/09/14 08:21:04;;;;;;;;;;;18.50;99.90;;;;;;5093707;28;19924;-67
2022/09/14 08:23:29;;;;;;;;;;;18.60;99.90;;;;;;5076882;28;19974;-67
2022/09/14 08:25:55;;;;;;;;;;;18.70;99.90;;;;;;5095041;28;20030;-67
2022/09/14 08:28:20;;;;;;;;;;;18.80;99.90;;;;;;5095452;28;19963;-68
2022/09/14 08:30:46;;;;;;;;;;;18.80;99.90;;;;;;5095852;28;19919;-68
2022/09/14 08:33:12;;;;;;;;;;;18.80;99.90;;;;;;5096528;27;20330;-67
2022/09/14 08:35:41;;;;;;;;;;;18.90;99.90;;;;;;5093930;28;19959;-67
2022/09/14 08:38:06;;;;;;;;;;;19.00;99.90;;;;;;5093866;28;19924;-69
2022/09/14 08:40:32;;;;;;;;;;;19.00;99.90;;;;;;5093488;28;19930;-67
2022/09/14 08:43:01;;;;;;;;;;;19.30;99.90;;;;;;5095532;28;19928;-68
2022/09/14 08:45:27;;;;;;;;;;;19.30;99.90;;;;;;5076642;28;20003;-67
2022/09/14 08:47:53;;;;;;;;;;;19.60;99.90;;;;;;5090568;28;19928;-67
2022/09/14 08:50:20;;;;;;;;;;;20.00;99.90;;;;;;5074695;28;20089;-68
2022/09/14 08:52:47;;;;;;;;;;;20.60;99.90;;;;;;5074852;28;19974;-67
2022/09/14 08:55:31;;;;;;;;;;;21.00;99.90;;;;;;5075089;28;20434;-68
2022/09/14 08:58:17;;;;;;;;;;;21.50;99.90;;;;;;5075152;28;19924;-67
2022/09/14 09:00:56;;;;;;;;;;;22.20;99.90;;;;;;5077887;28;20259;-67
2022/09/14 09:03:28;;;;;;;;;;;22.80;99.90;;;;;;5077514;28;19965;-68
2022/09/14 09:06:01;;;;;;;;;;;22.90;99.90;;;;;;5075844;28;19931;-68
2022/09/14 09:08:27;;;;;;;;;;;23.60;99.90;;;;;;5075041;28;19973;-70
2022/09/14 09:10:53;;;;;;;;;;;23.30;98.30;;;;;;5074997;28;19928;-67
2022/09/14 09:13:22;;;;;;;;;;;23.80;99.10;;;;;;5074728;28;19931;-69
2022/09/14 09:15:56;;;;;;;;;;;23.10;99.90;;;;;;5074511;28;20268;-68
2022/09/14 09:18:36;;;;;;;;;;;22.60;96.20;;;;;;5073261;28;19978;-67
2022/09/14 09:21:13;;;;;;;;;;;22.10;99.90;;;;;;5074623;28;19969;-68
2022/09/14 09:23:39;;;;;;;;;;;21.70;99.90;;;;;;5073963;28;19931;-67
2022/09/14 09:26:08;;;;;;;;;;;21.00;99.90;;;;;;5093570;28;19930;-67
2022/09/14 09:28:38;;;;;;;;;;;20.40;99.90;;;;;;5092073;28;19940;-67
2022/09/14 09:31:05;;;;;;;;;;;20.10;99.90;;;;;;5092037;28;19962;-68
2022/09/14 09:33:31;;;;;;;;;;;20.00;99.90;;;;;;5094198;28;19966;-68
2022/09/14 09:35:57;;;;;;;;;;;20.00;99.90;;;;;;5088421;28;19920;-67
2022/09/14 09:38:24;;;;;;;;;;;19.80;99.90;;;;;;5074069;28;19959;-70
2022/09/14 09:40:55;;;;;;;;;;;19.60;99.90;;;;;;5073738;28;19924;-70
2022/09/14 09:43:21;;;;;;;;;;;19.80;99.90;;;;;;5087194;28;19923;-67
2022/09/14 09:45:46;;;;;;;;;;;19.80;99.90;;;;;;5091120;28;19923;-68
2022/09/14 09:48:13;;;;;;;;;;;19.80;99.90;;;;;;5090954;28;19969;-70
2022/09/14 09:50:49;;;;;;;;;;;19.70;99.90;;;;;;5090347;28;20049;-66
2022/09/14 09:53:17;;;;;;;;;;;19.40;99.90;;;;;;5090504;28;20106;-67
2022/09/14 09:55:47;;;;;;;;;;;19.50;99.90;;;;;;5072027;28;20744;-67
2022/09/14 09:58:21;;;;;;;;;;;19.50;99.90;;;;;;5090886;28;20343;-67
2022/09/14 10:00:57;;;;;;;;;;;20.00;99.90;;;;;;5090320;28;20818;-71
2022/09/14 10:03:28;;;;;;;;;;;20.20;99.90;;;;;;5089938;28;19943;-68
2022/09/14 10:06:01;;;;;;;;;;;20.50;99.90;;;;;;5090019;28;19996;-67
2022/09/14 10:08:27;;;;;;;;;;;20.70;99.90;;;;;;5090751;28;19923;-67
2022/09/14 10:10:52;;;;;;;;;;;20.70;99.90;;;;;;5072183;28;20355;-66
2022/09/14 10:13:30;;;;;;;;;;;20.80;99.90;;;;;;5089239;28;20032;-71
2022/09/14 10:16:28;;;;;;;;;;;20.80;99.90;;;;;;5090030;28;19927;-67
2022/09/14 10:18:54;;;;;;;;;;;21.10;99.90;;;;;;5066351;28;19924;-67
2022/09/14 10:21:21;;;;;;;;;;;21.10;99.90;;;;;;5089037;28;20960;-68
2022/09/14 10:24:00;;;;;;;;;;;20.70;99.90;;;;;;5090370;28;20028;-70
2022/09/14 10:26:26;;;;;;;;;;;20.70;99.90;;;;;;5092063;28;19923;-68
2022/09/14 10:28:52;;;;;;;;;;;20.70;99.90;;;;;;5091534;28;19924;-68
2022/09/14 10:31:26;;;;;;;;;;;20.60;99.90;;;;;;5088828;28;20392;-67
2022/09/14 10:33:55;;;;;;;;;;;20.50;99.90;;;;;;5089873;28;19924;-68
2022/09/14 10:36:28;;;;;;;;;;;20.30;99.90;;;;;;5089652;28;19967;-69
2022/09/14 10:39:06;;;;;;;;;;;20.30;99.90;;;;;;5089796;28;19924;-67
2022/09/14 10:41:38;;;;;;;;;;;20.50;99.90;;;;;;5088054;28;20489;-67
2022/09/14 10:44:22;;;;;;;;;;;20.50;99.90;;;;;;5089797;28;21016;-67
2022/09/14 10:47:06;;;;;;;;;;;20.60;99.90;;;;;;5089688;28;19928;-70
2022/09/14 10:49:41;;;;;;;;;;;20.40;99.90;;;;;;5089149;28;20357;-68
2022/09/14 10:52:14;;;;;;;;;;;20.50;99.90;;;;;;5088291;28;19924;-67
2022/09/14 10:54:51;;;;;;;;;;;20.60;99.90;;;;;;5088449;28;20002;-67
2022/09/14 10:57:17;;;;;;;;;;;20.50;99.90;;;;;;5087570;28;19923;-68
2022/09/14 10:59:58;;;;;;;;;;;20.50;99.90;;;;;;5068944;28;19924;-68
2022/09/14 11:02:29;;;;;;;;;;;20.70;99.90;;;;;;5070398;28;20523;-68
2022/09/14 11:05:07;;;;;;;;;;;20.40;99.90;;;;;;5074051;28;19920;-68
2022/09/14 11:07:36;;;;;;;;;;;20.40;99.90;;;;;;5090936;28;19920;-71
2022/09/14 11:10:05;;;;;;;;;;;20.20;99.90;;;;;;5091932;28;19966;-71
2022/09/14 11:12:50;;;;;;;;;;;20.60;99.90;;;;;;5091447;28;19926;-68
2022/09/14 11:15:33;;;;;;;;;;;21.30;99.90;;;;;;5090212;28;19935;-69
2022/09/14 11:18:05;;;;;;;;;;;22.00;99.90;;;;;;5092269;28;19923;-69
2022/09/14 11:20:49;;;;;;;;;;;22.30;97.80;;;;;;5092429;28;19955;-69
2022/09/14 11:23:44;;;;;;;;;;;22.20;95.40;;;;;;5075717;28;20108;-69
2022/09/14 11:26:15;;;;;;;;;;;22.20;98.30;;;;;;5060668;28;20304;-67
2022/09/14 11:28:43;;;;;;;;;;;22.10;99.40;;;;;;5090277;28;20283;-68
2022/09/14 11:31:17;;;;;;;;;;;22.40;96.40;;;;;;5082935;28;20461;-70
2022/09/14 11:33:43;;;;;;;;;;;22.40;99.80;;;;;;5073819;28;19947;-69
2022/09/14 11:36:15;;;;;;;;;;;22.20;96.50;;;;;;5077471;28;19920;-68
2022/09/14 11:38:43;;;;;;;;;;;22.30;94.80;;;;;;5092053;28;19924;-67
2022/09/14 11:41:11;;;;;;;;;;;22.30;98.50;;;;;;5093289;28;20455;-68
2022/09/14 11:43:49;;;;;;;;;;;22.40;96.10;;;;;;5073935;28;20154;-68
2022/09/14 11:46:17;;;;;;;;;;;22.40;92.90;;;;;;5087463;28;19930;-68
2022/09/14 11:48:46;;;;;;;;;;;23.10;94.20;;;;;;5093300;28;19953;-70
2022/09/14 11:51:18;;;;;;;;;;;23.30;87.30;;;;;;5091436;28;19923;-70
2022/09/14 11:53:45;;;;;;;;;;;22.80;84.90;;;;;;5092813;27;20414;-70
2022/09/14 11:56:25;;;;;;;;;;;23.50;86.20;;;;;;5091626;28;19923;-65
2022/09/14 11:58:53;;;;;;;;;;;23.60;78.90;;;;;;5093334;28;20371;-67
2022/09/14 12:01:27;;;;;;;;;;;23.60;85.90;;;;;;5093427;28;20381;-67
2022/09/14 12:03:53;;;;;;;;;;;23.50;83.60;;;;;;5092841;28;20473;-68
2022/09/14 12:06:31;;;;;;;;;;;23.20;81.70;;;;;;5073896;28;19967;-67
2022/09/14 12:09:18;;;;;;;;;;;23.10;90.90;;;;;;5074337;28;19924;-70
2022/09/14 12:11:45;;;;;;;;;;;22.30;80.80;;;;;;5058997;28;20014;-71
2022/09/14 12:14:22;;;;;;;;;;;22.20;83.20;;;;;;5087864;28;20315;-69
2022/09/14 12:17:07;;;;;;;;;;;21.70;86.90;;;;;;5092466;28;19924;-69
2022/09/14 12:19:33;;;;;;;;;;;21.40;91.00;;;;;;5091991;28;20394;-66
2022/09/14 12:22:17;;;;;;;;;;;21.90;92.90;;;;;;5090654;28;19923;-67
2022/09/14 12:24:43;;;;;;;;;;;22.10;92.30;;;;;;5073998;28;19930;-69
2022/09/14 12:27:21;;;;;;;;;;;22.40;93.10;;;;;;5081305;28;19924;-67
2022/09/14 12:29:46;;;;;;;;;;;22.30;84.10;;;;;;5070882;28;20909;-69
2022/09/14 12:32:25;;;;;;;;;;;22.10;82.50;;;;;;5072364;28;20000;-69
2022/09/14 12:35:09;;;;;;;;;;;22.80;91.80;;;;;;5072960;28;20296;-68
2022/09/14 12:37:35;;;;;;;;;;;22.90;85.00;;;;;;5081936;28;19924;-68
2022/09/14 12:40:22;;;;;;;;;;;22.80;86.40;;;;;;5091486;28;20380;-71
2022/09/14 12:42:47;;;;;;;;;;;22.70;83.70;;;;;;5091659;28;19936;-68
2022/09/14 12:45:32;;;;;;;;;;;21.90;80.40;;;;;;5091633;28;19923;-69
2022/09/14 12:47:57;;;;;;;;;;;21.80;89.00;;;;;;5091773;28;19980;-68
2022/09/14 12:50:25;;;;;;;;;;;21.80;89.00;;;;;;5091770;28;19927;-70
2022/09/14 12:53:02;;;;;;;;;;;21.80;91.30;;;;;;5091955;28;20423;-68
2022/09/14 12:55:48;;;;;;;;;;;22.10;90.00;;;;;;5090061;28;19970;-68
2022/09/14 12:58:19;;;;;;;;;;;22.40;87.30;;;;;;5091779;28;19924;-68
2022/09/14 13:00:53;;;;;;;;;;;22.30;86.80;;;;;;5091334;28;20529;-68
2022/09/14 13:03:44;;;;;;;;;;;21.90;87.40;;;;;;5089435;28;19927;-67
2022/09/14 13:06:11;;;;;;;;;;;21.60;90.00;;;;;;5089469;28;20359;-69
2022/09/14 13:08:37;;;;;;;;;;;20.90;90.20;;;;;;5091463;28;20332;-70
2022/09/14 13:11:02;;;;;;;;;;;21.30;93.00;;;;;;5079810;28;20371;-70
2022/09/14 13:13:31;;;;;;;;;;;21.90;94.00;;;;;;5071534;28;20399;-69
2022/09/14 13:16:04;;;;;;;;;;;22.00;94.70;;;;;;5071991;28;20348;-67
2022/09/14 13:18:31;;;;;;;;;;;22.20;93.10;;;;;;5072886;28;19974;-71
2022/09/14 13:20:58;;;;;;;;;;;22.10;90.90;;;;;;5072329;28;20400;-67
2022/09/14 13:23:34;;;;;;;;;;;21.40;91.40;;;;;;5071167;28;19923;-70
2022/09/14 13:26:07;;;;;;;;;;;21.00;90.60;;;;;;5091046;28;19930;-68
2022/09/14 13:28:33;;;;;;;;;;;21.00;93.60;;;;;;5090099;28;19947;-70
2022/09/14 13:31:00;;;;;;;;;;;21.00;93.90;;;;;;5089566;28;19924;-69
2022/09/14 13:33:27;;;;;;;;;;;21.20;91.00;;;;;;5089582;28;19924;-68
2022/09/14 13:35:54;;;;;;;;;;;22.10;92.10;;;;;;5089155;28;19920;-68
2022/09/14 13:38:23;;;;;;;;;;;22.10;90.60;;;;;;5090821;28;20423;-69
2022/09/14 13:40:50;;;;;;;;;;;22.90;88.80;;;;;;5089389;28;19975;-68
2022/09/14 13:43:17;;;;;;;;;;;22.80;81.70;;;;;;5090922;28;19924;-68
2022/09/14 13:45:43;;;;;;;;;;;22.60;82.80;;;;;;5090819;28;19926;-67
2022/09/14 13:48:10;;;;;;;;;;;22.40;82.20;;;;;;5089158;28;19923;-68
2022/09/14 13:50:36;;;;;;;;;;;22.40;80.00;;;;;;5089681;28;20398;-68
2022/09/14 13:53:02;;;;;;;;;;;22.00;83.50;;;;;;5090514;28;19923;-69
2022/09/14 13:55:41;;;;;;;;;;;23.20;84.90;;;;;;5089089;28;20028;-71
2022/09/14 13:58:12;;;;;;;;;;;24.30;83.10;;;;;;5089423;28;19927;-67
2022/09/14 14:00:49;;;;;;;;;;;25.40;76.50;;;;;;5090302;28;20034;-71
2022/09/14 14:03:22;;;;;;;;;;;25.80;71.90;;;;;;5083600;28;20361;-72
2022/09/14 14:05:48;;;;;;;;;;;26.00;61.80;;;;;;5072194;28;19969;-69
2022/09/14 14:08:24;;;;;;;;;;;26.20;61.30;;;;;;5071327;28;20314;-67
2022/09/14 14:10:52;;;;;;;;;;;26.20;58.40;;;;;;5090169;28;19924;-68
2022/09/14 14:13:25;;;;;;;;;;;25.20;53.60;;;;;;5089983;28;20516;-69
2022/09/14 14:15:52;;;;;;;;;;;25.00;58.00;;;;;;5090342;28;20457;-68
2022/09/14 14:18:30;;;;;;;;;;;24.70;58.70;;;;;;5074124;28;20301;-68
2022/09/14 14:21:28;;;;;;;;;;;23.20;62.60;;;;;;5070865;28;20262;-71
2022/09/14 14:24:12;;;;;;;;;;;23.00;70.80;;;;;;5067345;28;19927;-71
2022/09/14 14:26:38;;;;;;;;;;;22.10;78.80;;;;;;5089956;28;19924;-69
2022/09/14 14:29:08;;;;;;;;;;;21.50;82.50;;;;;;5090203;28;20205;-70